Viking Sky — LAYU7 — position and weather

sailwx.info

Track history (hours):
 
Tides and Currents Weather Stations Pressure Air Temp Water Temp Dewpoint Dewpoint Depression Visibility Wind Speed Wind Dir Waves Ship Positions

Viking Sky

Last reported at 2019-Jun-16 14:30 UTC. Time now 2019-Jun-16 14:36 UTC.
Position N 62°07' E 007°11'.

Length 228 m; draft 6.7 m.

Type: Passenger vessel. MMSI: 259186000.

Date/timePositionNaut miles runAvg speedWind from/ knotsBaromVisibWave heightAir tempDewpointWater temp
2019-Jun-16 14:30N 62°07' E 007°11'0 0.0
2019-Jun-16 14:00N 62°07' E 007°11'0 0.0
2019-Jun-16 13:30N 62°07' E 007°11'0 0.0
2019-Jun-16 13:00N 62°07' E 007°11'0 0.0
2019-Jun-16 12:30N 62°07' E 007°11'0 0.0
2019-Jun-16 12:00N 62°07' E 007°11'0 0.0
2019-Jun-16 11:30N 62°07' E 007°11'0 0.0
2019-Jun-16 11:00N 62°07' E 007°11'0 0.0
2019-Jun-16 10:30N 62°07' E 007°11'0 0.0
2019-Jun-16 10:00N 62°07' E 007°11'0 0.0
2019-Jun-16 09:30N 62°07' E 007°11'0 0.0
2019-Jun-16 09:00N 62°07' E 007°11'0 0.0
2019-Jun-16 08:29N 62°07' E 007°11'0 0.0
2019-Jun-16 08:00N 62°07' E 007°11'0 0.0
2019-Jun-16 07:30N 62°07' E 007°11'0 0.0
2019-Jun-16 07:00N 62°07' E 007°11'0 0.0
2019-Jun-16 06:30N 62°07' E 007°11'0 0.0
2019-Jun-16 06:00N 62°07' E 007°11'0 0.0
2019-Jun-16 05:30N 62°07' E 007°11'0 0.9
2019-Jun-16 05:00N 62°07' E 007°10'5 9.3
2019-Jun-16 04:29N 62°06' E 007°00'611.9
2019-Jun-16 03:59N 62°12' E 007°02'714.5
2019-Jun-16 03:30N 62°18' E 006°59'814.3
2019-Jun-16 02:58N 62°26' E 006°54'714.5
2019-Jun-16 02:30N 62°27' E 006°40'815.3
2019-Jun-16 02:00N 62°24' E 006°24'815.1
2019-Jun-16 01:30N 62°23' E 006°08'612.6
2019-Jun-16 01:00N 62°27' E 005°57'510.9
2019-Jun-16 00:30N 62°29' E 005°47'611.9
2019-Jun-16 00:00N 62°31' E 005°35'611.7
2019-Jun-15 23:30N 62°29' E 005°23'611.5
2019-Jun-15 23:00N 62°27' E 005°11'612.3
2019-Jun-15 22:30N 62°22' E 005°03'611.6
2019-Jun-15 22:00N 62°18' E 004°55'611.6
2019-Jun-15 21:30N 62°13' E 004°48'612.7
2019-Jun-15 21:00N 62°07' E 004°44'612.3
2019-Jun-15 20:30N 62°01' E 004°46'714.1
2019-Jun-15 20:00N 61°57' E 004°59'713.0
2019-Jun-15 19:29N 61°54' E 005°11'714.5
2019-Jun-15 19:00N 61°55' E 005°26'714.2
2019-Jun-15 18:30N 61°54' E 005°40'612.6
2019-Jun-15 18:00N 61°52' E 005°53'713.4
2019-Jun-15 17:29N 61°51' E 006°07'713.7
2019-Jun-15 17:00N 61°50' E 006°21'1114.2
2019-Jun-15 16:14N 61°52' E 006°44'2 0.1
2019-Jun-14 15:39N 61°51' E 006°47'611.9
2019-Jun-14 15:08N 61°52' E 006°34'214.9
2019-Jun-14 15:00N 61°50' E 006°33'713.5
2019-Jun-14 14:30N 61°51' E 006°18'714.5
2019-Jun-14 14:00N 61°51' E 006°03'611.8
2019-Jun-14 13:30N 61°46' E 005°57'1 2.1
2019-Jun-14 12:59N 61°45' E 005°56'3 6.8
2019-Jun-14 12:30N 61°48' E 005°59'4 8.9
2019-Jun-14 12:00N 61°52' E 005°52'612.2
2019-Jun-14 11:30N 61°54' E 005°40'714.5
2019-Jun-14 11:00N 61°55' E 005°25'713.8
2019-Jun-14 10:29N 61°54' E 005°10'712.5
2019-Jun-14 09:54N 61°57' E 004°57'614.5
2019-Jun-14 09:30N 61°57' E 004°45'814.9
2019-Jun-14 09:00N 61°50' E 004°37'713.1
2019-Jun-14 08:30N 61°43' E 004°37'4 7.5
2019-Jun-14 08:00N 61°42' E 004°44'612.1
2019-Jun-14 07:30N 61°43' E 004°32'713.1
2019-Jun-14 07:00N 61°45' E 004°18'713.1
2019-Jun-14 06:30N 61°48' E 004°05'612.9
2019-Jun-14 06:00N 61°51' E 003°53'712.9
2019-Jun-14 05:29N 61°54' E 003°41'714.6
2019-Jun-14 05:00N 61°57' E 003°27'815.8
2019-Jun-14 04:30N 62°00' E 003°12'815.7
2019-Jun-14 04:00N 62°04' E 002°57'815.4
2019-Jun-14 03:29N 62°07' E 002°42'815.4
2019-Jun-14 03:00N 62°10' E 002°27'714.8
2019-Jun-14 02:30N 62°13' E 002°12'815.6
2019-Jun-14 02:00N 62°16' E 001°57'  
Track history (hours):
 
Tides and Currents Weather Stations Pressure Air Temp Water Temp Dewpoint Dewpoint Depression Visibility Wind Speed Wind Dir Waves Ship Positions

Viking Sky

Last reported at 2019-Jun-16 14:30 UTC. Time now 2019-Jun-16 14:36 UTC.
Position N 62°07' E 007°11'.

Length 228 m; draft 6.7 m.

Type: Passenger vessel. MMSI: 259186000.

Date/timePositionNaut miles runAvg speedWind from/ knotsBaromVisibWave heightAir tempDewpointWater temp
2019-Jun-16 14:30N 62°07' E 007°11'0 0.0
2019-Jun-16 14:00N 62°07' E 007°11'0 0.0
2019-Jun-16 13:30N 62°07' E 007°11'0 0.0
2019-Jun-16 13:00N 62°07' E 007°11'0 0.0
2019-Jun-16 12:30N 62°07' E 007°11'0 0.0
2019-Jun-16 12:00N 62°07' E 007°11'0 0.0
2019-Jun-16 11:30N 62°07' E 007°11'0 0.0
2019-Jun-16 11:00N 62°07' E 007°11'0 0.0
2019-Jun-16 10:30N 62°07' E 007°11'0 0.0
2019-Jun-16 10:00N 62°07' E 007°11'0 0.0
2019-Jun-16 09:30N 62°07' E 007°11'0 0.0
2019-Jun-16 09:00N 62°07' E 007°11'0 0.0
2019-Jun-16 08:29N 62°07' E 007°11'0 0.0
2019-Jun-16 08:00N 62°07' E 007°11'0 0.0
2019-Jun-16 07:30N 62°07' E 007°11'0 0.0
2019-Jun-16 07:00N 62°07' E 007°11'0 0.0
2019-Jun-16 06:30N 62°07' E 007°11'0 0.0
2019-Jun-16 06:00N 62°07' E 007°11'0 0.0
2019-Jun-16 05:30N 62°07' E 007°11'0 0.9
2019-Jun-16 05:00N 62°07' E 007°10'5 9.3
2019-Jun-16 04:29N 62°06' E 007°00'611.9
2019-Jun-16 03:59N 62°12' E 007°02'714.5
2019-Jun-16 03:30N 62°18' E 006°59'814.3
2019-Jun-16 02:58N 62°26' E 006°54'714.5
2019-Jun-16 02:30N 62°27' E 006°40'815.3
2019-Jun-16 02:00N 62°24' E 006°24'815.1
2019-Jun-16 01:30N 62°23' E 006°08'612.6
2019-Jun-16 01:00N 62°27' E 005°57'510.9
2019-Jun-16 00:30N 62°29' E 005°47'611.9
2019-Jun-16 00:00N 62°31' E 005°35'611.7
2019-Jun-15 23:30N 62°29' E 005°23'611.5
2019-Jun-15 23:00N 62°27' E 005°11'612.3
2019-Jun-15 22:30N 62°22' E 005°03'611.6
2019-Jun-15 22:00N 62°18' E 004°55'611.6
2019-Jun-15 21:30N 62°13' E 004°48'612.7
2019-Jun-15 21:00N 62°07' E 004°44'612.3
2019-Jun-15 20:30N 62°01' E 004°46'714.1
2019-Jun-15 20:00N 61°57' E 004°59'713.0
2019-Jun-15 19:29N 61°54' E 005°11'714.5
2019-Jun-15 19:00N 61°55' E 005°26'714.2
2019-Jun-15 18:30N 61°54' E 005°40'612.6
2019-Jun-15 18:00N 61°52' E 005°53'713.4
2019-Jun-15 17:29N 61°51' E 006°07'713.7
2019-Jun-15 17:00N 61°50' E 006°21'1114.2
2019-Jun-15 16:14N 61°52' E 006°44'2 0.1
2019-Jun-14 15:39N 61°51' E 006°47'611.9
2019-Jun-14 15:08N 61°52' E 006°34'214.9
2019-Jun-14 15:00N 61°50' E 006°33'713.5
2019-Jun-14 14:30N 61°51' E 006°18'714.5
2019-Jun-14 14:00N 61°51' E 006°03'611.8
2019-Jun-14 13:30N 61°46' E 005°57'1 2.1
2019-Jun-14 12:59N 61°45' E 005°56'3 6.8
2019-Jun-14 12:30N 61°48' E 005°59'4 8.9
2019-Jun-14 12:00N 61°52' E 005°52'612.2
2019-Jun-14 11:30N 61°54' E 005°40'714.5
2019-Jun-14 11:00N 61°55' E 005°25'713.8
2019-Jun-14 10:29N 61°54' E 005°10'712.5
2019-Jun-14 09:54N 61°57' E 004°57'614.5
2019-Jun-14 09:30N 61°57' E 004°45'814.9
2019-Jun-14 09:00N 61°50' E 004°37'713.1
2019-Jun-14 08:30N 61°43' E 004°37'4 7.5
2019-Jun-14 08:00N 61°42' E 004°44'612.1
2019-Jun-14 07:30N 61°43' E 004°32'713.1
2019-Jun-14 07:00N 61°45' E 004°18'713.1
2019-Jun-14 06:30N 61°48' E 004°05'612.9
2019-Jun-14 06:00N 61°51' E 003°53'712.9
2019-Jun-14 05:29N 61°54' E 003°41'714.6
2019-Jun-14 05:00N 61°57' E 003°27'815.8
2019-Jun-14 04:30N 62°00' E 003°12'815.7
2019-Jun-14 04:00N 62°04' E 002°57'815.4
2019-Jun-14 03:29N 62°07' E 002°42'815.4
2019-Jun-14 03:00N 62°10' E 002°27'714.8
2019-Jun-14 02:30N 62°13' E 002°12'815.6
2019-Jun-14 02:00N 62°16' E 001°57'  

Dump ship's entire track history